Latest Weather Observations for TFS F (Fingal)

IDT60801

Issued at 7:11 am EDT Tuesday 6 December 2022 (issued every 10 minutes, with the page automatically refreshed every 10 minutes)

About weather observations | Map of weather stations | Latest weather observations for TAS | Other Formats
Station Details ID: 250142 Name: PORTABLE TAS AWS 6 (TFS) Lat: -41.60 Lon: 148.06 Height: 253.0 m

Portable automatic weather stations (PAWS) are operated by other organisations, such as Fire and Emergency Services, and are included here by agreement. Portable stations may be deployed to a location for a short period and their location may be subject to change without notice. Wind observations from these stations are provided from heights of either three (3) or ten (10) metres above ground level (AGL).

Data from the previous 72 hours. | See also: Recent months for locations in Tasmania
Date/Time
EDT
Temp
°C
App
Temp
°C
Dew
Point
°C
Rel
Hum
%
Delta-T
°C
Wind Press
QNH
hPa
Press
MSL
hPa
Rain since
9am
mm
Dir  Spd
km/h
Gust
km/h
Spd
kts
Gust
kts
06/07:00am 9.2 5.7 3.5 67 2.5 SW 11 19 6 10 981.8 - 0.0
06/06:50am 9.2 6.0 3.2 66 2.6 WSW 9 13 5 7 981.8 - 0.0
06/06:40am 9.2 6.0 3.1 65 2.7 SW 9 13 5 7 981.8 - 0.0
06/06:30am 9.2 6.0 2.9 64 2.7 WSW 9 15 5 8 981.7 - 0.0
06/06:20am 9.1 5.5 2.9 65 2.7 WSW 11 13 6 7 981.7 - 0.0
06/06:10am 9.0 5.8 2.8 65 2.7 W 9 15 5 8 981.6 - 0.0
06/06:00am 9.1 6.3 3.1 66 2.6 WSW 7 11 4 6 981.5 - 0.0
06/05:50am 8.9 6.1 3.2 67 2.5 WSW 7 15 4 8 981.5 - 0.0
06/05:40am 9.0 6.3 2.8 65 2.7 W 6 9 3 5 981.4 - 0.0
06/05:30am 9.0 6.2 3.4 68 2.4 W 7 13 4 7 981.4 - 0.0
06/05:20am 9.0 5.4 2.7 64 2.7 SSW 11 19 6 10 981.3 - 0.0
06/05:10am 8.7 5.5 3.3 69 2.3 WSW 9 13 5 7 981.1 - 0.0
06/05:00am 8.7 5.1 3.1 68 2.4 WSW 11 15 6 8 981.1 - 0.0
06/04:50am 8.7 5.2 3.5 70 2.3 W 11 17 6 9 981.2 - 0.0
06/04:40am 9.0 5.0 3.0 66 2.6 W 13 20 7 11 981.1 - 0.0
06/04:30am 8.9 5.8 3.4 68 2.4 WSW 9 19 5 10 981.1 - 0.0
06/04:20am 8.9 5.9 4.0 71 2.2 WSW 9 13 5 7 981.2 - 0.0
06/04:10am 9.0 5.9 3.7 69 2.3 SSW 9 17 5 9 981.3 - 0.0
06/04:00am 9.0 6.5 3.6 69 2.4 WSW 6 13 3 7 981.4 - 0.0
06/03:50am 9.1 6.0 3.6 68 2.4 SSW 9 15 5 8 981.6 - 0.0
06/03:40am 9.0 6.2 3.3 67 2.5 S 7 15 4 8 981.6 - 0.0
06/03:30am 8.9 6.7 3.3 68 2.4 S 4 7 2 4 981.7 - 0.0
06/03:20am 9.0 6.5 3.6 69 2.4 NE 6 11 3 6 981.8 - 0.0
06/03:10am 9.1 6.4 2.8 64 2.7 NE 6 11 3 6 981.9 - 0.0
06/03:00am 8.8 5.9 2.7 65 2.6 ENE 7 13 4 7 982.0 - 0.0
06/02:50am 8.9 6.2 2.9 66 2.6 NNE 6 11 3 6 982.0 - 0.0
06/02:40am 9.1 6.9 3.2 66 2.6 ENE 4 7 2 4 982.0 - 0.0
06/02:30am 9.0 6.4 3.3 67 2.5 S 6 15 3 8 982.0 - 0.0
06/02:20am 9.2 6.6 3.0 65 2.7 SW 6 11 3 6 982.2 - 0.0
06/02:10am 9.1 5.8 2.3 62 2.9 SSW 9 11 5 6 982.1 - 0.0
06/02:00am 9.0 5.7 2.4 63 2.8 SSE 9 17 5 9 982.0 - 0.0
06/01:50am 9.1 5.5 2.8 64 2.7 SSW 11 17 6 9 982.2 - 0.0
06/01:40am 9.1 6.3 3.4 67 2.5 SSW 7 15 4 8 982.2 - 0.0
06/01:30am 9.3 6.2 3.5 67 2.5 SW 9 15 5 8 982.2 - 0.0
06/01:20am 9.3 5.0 3.0 65 2.7 SSW 15 19 8 10 982.2 - 0.0
06/01:10am 9.3 6.8 3.5 67 2.5 SW 6 13 3 7 982.2 - 0.0
06/01:00am 9.3 6.7 4.1 70 2.3 WSW 7 11 4 6 982.3 - 0.0
06/12:50am 9.4 6.9 3.7 67 2.5 W 6 11 3 6 982.4 - 0.0
06/12:40am 9.5 7.1 4.1 69 2.4 SW 6 11 3 6 982.3 - 0.0
06/12:30am 9.5 6.0 3.7 67 2.6 WSW 11 15 6 8 982.3 - 0.0
06/12:20am 9.5 6.5 4.2 69 2.4 SW 9 13 5 7 982.4 - 0.0
06/12:10am 9.5 6.4 3.8 67 2.5 SW 9 13 5 7 982.5 - 0.0
06/12:00am 9.5 6.1 4.0 68 2.5 SW 11 17 6 9 982.6 - 0.0
 
Date/Time
EDT
Temp
°C
App
Temp
°C
Dew
Point
°C
Rel
Hum
%
Delta-T
°C
Wind Press
QNH
hPa
Press
MSL
hPa
Rain since
9am
mm
Dir  Spd
km/h
Gust
km/h
Spd
kts
Gust
kts
05/11:50pm 9.6 6.6 4.2 69 2.4 WSW 9 15 5 8 982.6 - 0.0
05/11:40pm 9.6 7.2 4.2 69 2.4 W 6 11 3 6 982.7 - 0.0
05/11:30pm 9.6 6.6 3.9 67 2.5 SW 9 15 5 8 982.7 - 0.0
05/11:20pm 9.6 5.9 4.7 71 2.2 SW 13 19 7 10 982.8 - 0.0
05/11:10pm 9.4 6.6 5.3 75 1.9 WSW 9 11 5 6 982.8 - 0.0
05/11:00pm 9.4 7.1 5.9 79 1.6 S 7 15 4 8 982.8 - 0.0
05/10:50pm 9.4 7.2 6.2 80 1.5 N 7 15 4 8 982.7 - 0.0
05/10:40pm 9.7 8.4 6.0 78 1.7 NNE 2 4 1 2 982.8 - 0.0
05/10:30pm 9.7 5.8 5.4 74 2.0 WSW 15 26 8 14 982.6 - 0.0
05/10:20pm 9.6 7.0 5.9 78 1.7 WNW 9 15 5 8 982.9 - 0.0
05/10:10pm 9.6 6.9 5.5 75 1.9 NE 9 15 5 8 982.7 - 0.0
05/10:00pm 9.8 7.1 5.4 74 2.0 ESE 9 15 5 8 982.5 - 0.0
05/09:50pm 9.6 6.9 5.5 75 1.9 N 9 15 5 8 982.4 - 0.0
05/09:40pm 9.7 7.7 6.3 79 1.6 W 6 9 3 5 982.5 - 0.0
05/09:30pm 9.7 7.4 5.9 77 1.8 WSW 7 11 4 6 982.4 - 0.0
05/09:20pm 9.9 6.5 5.8 75 1.9 S 13 26 7 14 982.2 - 0.0
05/09:10pm 9.9 6.8 5.6 74 2.0 WSW 11 20 6 11 982.0 - 0.0
05/09:00pm 9.8 7.6 5.4 74 2.0 NE 6 13 3 7 982.0 - 0.0
05/08:50pm 9.9 7.8 5.7 75 2.0 S 6 11 3 6 982.0 - 0.0
05/08:40pm 10.0 6.5 5.5 73 2.1 WSW 13 19 7 10 981.8 - 0.0
05/08:30pm 9.9 6.4 5.6 74 2.0 WNW 13 17 7 9 981.7 - 0.0
05/08:20pm 10.1 7.9 5.5 73 2.1 W 6 11 3 6 981.6 - 0.0
05/08:10pm 10.0 7.0 5.8 75 2.0 WNW 11 15 6 8 981.5 - 0.0
05/08:00pm 10.0 7.4 6.1 77 1.8 W 9 15 5 8 981.5 - 0.0
05/07:50pm 10.2 6.8 5.8 74 2.1 W 13 22 7 12 981.4 - 0.0
05/07:40pm 10.3 6.5 6.0 74 2.0 WNW 15 20 8 11 981.2 - 0.0
05/07:30pm 10.3 6.2 6.3 76 1.9 W 17 28 9 15 981.1 - 0.0
05/07:20pm 10.3 7.7 6.2 76 1.9 NW 9 15 5 8 980.9 - 0.0
05/07:10pm 10.5 7.5 6.2 75 2.0 WSW 11 22 6 12 980.9 - 0.0
05/07:00pm 10.6 7.7 6.6 76 1.9 WSW 11 24 6 13 980.7 - 0.0
05/06:50pm 10.7 8.4 7.3 79 1.6 NNW 9 13 5 7 980.5 - 0.0
05/06:40pm 10.8 7.1 6.4 74 2.1 N 15 24 8 13 980.3 - 0.0
05/06:30pm 11.0 7.6 7.8 80 1.6 NNE 15 17 8 9 979.9 - 0.0
05/06:20pm 11.3 9.3 7.1 75 2.0 N 7 13 4 7 979.6 - 0.0
05/06:10pm 11.3 8.9 7.0 75 2.1 NNE 9 17 5 9 979.6 - 0.0
05/06:00pm 11.6 9.2 7.0 73 2.2 WNW 9 22 5 12 979.2 - 0.0
05/05:50pm 11.6 8.9 7.5 76 2.0 N 11 15 6 8 979.4 - 0.0
05/05:40pm 11.7 8.5 7.0 73 2.3 NE 13 19 7 10 979.1 - 0.0
05/05:30pm 11.6 7.3 6.9 73 2.3 S 19 30 10 16 979.1 - 0.0
05/05:20pm 11.8 6.9 7.0 72 2.3 SSW 22 30 12 16 979.0 - 0.0
05/05:10pm 12.3 9.6 7.3 71 2.5 E 11 17 6 9 978.3 - 0.0
05/05:00pm 12.6 10.0 7.7 72 2.4 N 11 13 6 7 978.5 - 0.0
05/04:50pm 12.6 9.6 7.9 73 2.3 S 13 20 7 11 978.0 - 0.0
05/04:40pm 12.7 9.3 7.8 72 2.4 S 15 35 8 19 977.9 - 0.0
05/04:30pm 12.7 9.3 7.7 71 2.5 S 15 39 8 21 978.1 - 0.0
05/04:20pm 12.5 8.7 7.6 72 2.4 E 17 33 9 18 978.1 - 0.0
05/04:10pm 12.3 5.5 7.7 73 2.3 SE 33 41 18 22 977.9 - 0.0
05/04:00pm 12.5 7.5 8.1 74 2.2 SSE 24 35 13 19 977.6 - 0.0
05/03:50pm 12.8 9.8 7.8 71 2.5 S 13 24 7 13 977.7 - 0.0
05/03:40pm 12.8 9.2 8.3 74 2.3 SSW 17 22 9 12 977.8 - 0.0
05/03:30pm 12.8 9.5 8.0 72 2.4 S 15 28 8 15 977.5 - 0.0
05/03:20pm 12.4 6.6 8.0 74 2.2 S 28 32 15 17 977.2 - 0.0
05/03:10pm 12.3 6.1 7.8 74 2.2 S 30 44 16 24 976.8 - 0.0
05/03:00pm 12.3 5.6 8.2 76 2.0 S 33 46 18 25 976.8 - 0.0
05/02:50pm 12.3 5.2 7.9 74 2.2 S 35 43 19 23 976.6 - 0.0
05/02:40pm 12.4 5.4 8.4 76 2.0 S 35 54 19 29 976.5 - 0.0
05/02:30pm 12.6 5.5 8.2 74 2.2 S 35 50 19 27 976.3 - 0.0
05/02:20pm 12.6 3.4 8.1 74 2.2 S 46 52 25 28 976.5 - 0.0
05/02:10pm 12.9 5.2 8.5 74 2.2 S 39 46 21 25 976.1 - 0.0
05/02:00pm 13.2 4.7 8.6 73 2.3 S 43 48 23 26 976.3 - 0.0
05/01:50pm 13.4 5.3 8.8 74 2.3 S 41 56 22 30 976.2 - 0.0
05/01:40pm 14.3 5.5 9.5 73 2.5 S 46 56 25 30 976.2 - 0.0
05/01:30pm 14.1 6.5 8.9 71 2.7 S 39 57 21 31 976.1 - 0.0
05/01:20pm 14.1 5.7 8.9 71 2.7 S 43 59 23 32 975.9 - 0.0
05/01:10pm 14.8 6.9 9.2 69 2.9 S 41 48 22 26 975.8 - 0.0
05/01:00pm 14.5 6.1 9.0 69 2.8 S 43 52 23 28 976.2 - 0.0
05/12:50pm 14.4 6.8 9.2 71 2.7 S 39 59 21 32 976.0 - 0.0
05/12:40pm 14.5 6.0 9.2 70 2.7 S 44 61 24 33 976.1 - 0.0
05/12:30pm 14.3 5.7 9.0 70 2.7 S 44 61 24 33 976.0 - 0.0
05/12:20pm 14.2 5.8 9.1 71 2.6 S 43 50 23 27 975.2 - 0.0
05/12:10pm 14.5 6.7 9.7 73 2.5 S 41 50 22 27 975.5 - 0.0
05/12:00pm 14.8 6.4 9.6 71 2.7 S 44 52 24 28 975.4 - 0.0
05/11:50am 15.2 7.4 9.9 70 2.8 S 41 50 22 27 974.9 - 0.0
05/11:40am 15.1 6.8 10.2 72 2.6 S 44 63 24 34 975.3 - 0.0
05/11:30am 15.1 6.9 9.8 70 2.8 S 43 52 23 28 975.0 - 0.0
05/11:20am 15.3 7.7 10.4 72 2.6 S 41 56 22 30 974.6 - 0.0
05/11:10am 15.0 7.7 10.3 73 2.5 S 39 46 21 25 974.8 - 0.0
05/11:00am 14.8 7.5 10.2 74 2.4 S 39 44 21 24 974.8 - 0.0
05/10:50am 14.9 8.8 10.5 75 2.3 S 33 41 18 22 974.8 - 0.0
05/10:40am 15.0 8.5 10.5 74 2.4 S 35 44 19 24 974.7 - 0.0
05/10:30am 15.1 7.9 10.4 73 2.5 S 39 54 21 29 974.7 - 0.0
05/10:20am 15.3 9.0 10.9 75 2.4 S 35 44 19 24 974.8 - 0.0
05/10:10am 15.9 10.9 11.1 73 2.6 S 28 37 15 20 974.7 - 0.0
05/10:00am 16.0 12.7 11.5 74 2.5 S 20 28 11 15 974.8 - 0.0
05/09:50am 16.1 14.1 11.6 74 2.5 S 13 20 7 11 975.0 - 0.0
05/09:40am 16.1 14.5 11.6 74 2.5 S 11 19 6 10 975.2 - 0.0
05/09:30am 15.9 14.8 11.8 76 2.3 SE 9 15 5 8 975.4 - 0.0
05/09:20am 15.9 14.8 11.9 77 2.2 SSW 9 15 5 8 975.5 - 0.0
05/09:10am 16.2 15.3 11.5 73 2.6 SSE 7 9 4 5 975.6 - 0.0
05/09:00am 16.4 15.6 11.8 74 2.5 S 7 20 4 11 975.5 - 0.0
05/08:50am 16.7 16.6 12.0 74 2.6 SSW 4 6 2 3 975.4 - 0.0
05/08:40am 16.8 16.3 11.9 73 2.7 SSW 6 11 3 6 975.3 - 0.0
05/08:30am 17.0 16.9 12.0 72 2.8 SW 4 7 2 4 975.2 - 0.0
05/08:20am 16.7 16.3 12.5 76 2.3 W 6 9 3 5 975.1 - 0.0
05/08:10am 16.1 16.0 12.2 77 2.2 W 4 9 2 5 975.1 - 0.0
05/08:00am 15.9 15.5 12.3 79 2.0 SW 6 9 3 5 975.0 - 0.0
05/07:50am 15.5 15.1 12.3 81 1.8 S 6 9 3 5 975.0 - 0.0
05/07:40am 15.3 14.3 12.4 83 1.6 SW 9 11 5 6 975.0 - 0.0
05/07:30am 14.9 14.4 12.8 87 1.2 NW 7 9 4 5 975.0 - 0.0
05/07:20am 14.6 14.3 12.7 88 1.1 NE 6 9 3 5 974.9 - 0.0
05/07:10am 14.1 13.9 12.9 92 0.7 ENE 6 6 3 3 974.5 - 0.0
05/07:00am 13.7 13.4 12.7 94 0.6 E 6 7 3 4 974.3 - 0.0
05/06:50am 13.5 13.1 12.5 94 0.5 ENE 6 7 3 4 974.4 - 0.0
05/06:40am 13.2 12.8 12.4 95 0.4 NE 6 9 3 5 974.2 - 0.0
05/06:20am 12.8 12.7 12.1 95 0.4 SW 4 6 2 3 973.9 - 0.0
05/06:10am 12.6 12.8 11.8 95 0.4 SSW 2 6 1 3 973.7 - 0.0
05/06:00am 12.5 12.7 11.7 95 0.4 NNW 2 4 1 2 973.7 - 0.0
05/05:50am 12.4 11.8 11.6 95 0.4 ENE 6 6 3 3 973.5 - 0.0
05/05:40am 12.7 12.4 11.6 93 0.6 NE 4 7 2 4 973.4 - 0.0
05/05:30am 12.8 12.3 11.9 94 0.5 W 6 7 3 4 973.2 - 0.0
05/05:20am 12.7 12.5 11.7 94 0.5 NW 4 6 2 3 973.2 - 0.0
05/05:10am 12.9 12.4 11.9 94 0.5 N 6 7 3 4 973.1 - 0.0
05/05:00am 12.8 13.0 11.8 94 0.5 ESE 2 4 1 2 972.9 - 0.0
05/04:50am 12.9 12.8 12.0 94 0.5 SSW 4 6 2 3 972.9 - 0.0
05/04:40am 12.9 12.4 12.0 94 0.5 SSW 6 6 3 3 973.0 - 0.0
05/04:30am 12.8 12.3 12.0 95 0.4 SW 6 6 3 3 972.8 - 0.0
05/04:20am 12.8 12.3 11.9 94 0.5 SW 6 7 3 4 972.7 - 0.0
05/04:10am 12.9 12.4 12.0 94 0.5 SSE 6 9 3 5 972.3 - 0.0
05/04:00am 13.1 12.6 12.2 94 0.5 NNE 6 9 3 5 972.2 - 0.0
05/03:50am 13.0 11.9 12.1 94 0.5 NNE 9 15 5 8 972.2 - 0.0
05/03:40am 13.0 12.9 12.1 94 0.5 N 4 6 2 3 972.0 - 0.0
05/03:30am 13.0 12.9 12.0 94 0.5 NE 4 6 2 3 972.6 - 0.0
05/03:20am 13.1 12.6 12.1 94 0.5 SE 6 9 3 5 972.9 - 0.0
05/03:10am 13.0 12.3 12.1 94 0.5 E 7 13 4 7 973.3 - 0.0
05/03:00am 12.8 12.7 12.1 95 0.4 S 4 7 2 4 974.4 - 0.0
05/02:50am 12.7 12.0 12.1 96 0.3 SSE 7 9 4 5 975.3 - 0.0
05/02:40am 12.8 12.1 12.1 95 0.4 E 7 11 4 6 975.0 - 0.0
05/02:30am 12.8 12.3 12.1 95 0.4 E 6 9 3 5 974.8 - 0.0
05/02:20am 13.0 13.0 12.3 95 0.4 N 4 6 2 3 975.1 - 0.0
05/02:10am 12.9 13.2 12.1 95 0.4 WSW 2 6 1 3 975.3 - 0.0
05/02:00am 12.8 12.3 12.1 95 0.4 S 6 9 3 5 975.5 - 0.0
05/01:50am 12.8 12.1 12.0 95 0.4 ESE 7 11 4 6 975.7 - 0.0
05/01:40am 13.1 13.4 12.2 94 0.5 ENE 2 4 1 2 975.7 - 0.0
05/01:30am 13.1 13.0 12.2 94 0.5 ENE 4 6 2 3 975.5 - 0.0
05/01:20am 13.2 12.6 12.3 94 0.5 NNW 7 11 4 6 975.6 - 0.0
05/01:10am 13.1 12.1 12.2 94 0.5 W 9 15 5 8 976.0 - 0.0
05/01:00am 12.8 12.7 12.0 95 0.4 NNW 4 7 2 4 976.1 - 0.0
05/12:50am 12.5 12.3 11.7 95 0.4 W 4 7 2 4 976.2 - 0.0
05/12:40am 12.4 12.1 11.5 94 0.5 WSW 4 7 2 4 976.2 - 0.0
05/12:30am 12.4 12.8 11.3 93 0.6 CALM 0 4 0 2 975.9 - 0.0
05/12:20am 12.6 12.7 11.6 94 0.5 NE 2 6 1 3 976.0 - 0.0
05/12:10am 12.8 12.5 11.6 92 0.6 SSE 4 7 2 4 976.0 - 0.0
05/12:00am 13.0 13.2 11.7 92 0.7 WNW 2 4 1 2 976.6 - 0.0
 
Date/Time
EDT
Temp
°C
App
Temp
°C
Dew
Point
°C
Rel
Hum
%
Delta-T
°C
Wind Press
QNH
hPa
Press
MSL
hPa
Rain since
9am
mm
Dir  Spd
km/h
Gust
km/h
Spd
kts
Gust
kts
04/11:50pm 13.0 12.8 11.7 92 0.7 W 4 6 2 3 976.6 - 0.0
04/11:40pm 13.0 12.2 11.7 92 0.7 W 7 9 4 5 976.9 - 0.0
04/11:30pm 13.1 12.5 11.7 91 0.8 NW 6 7 3 4 977.0 - 0.0
04/11:20pm 13.3 12.7 11.6 89 0.9 NE 6 11 3 6 976.8 - 0.0
04/11:10pm 13.3 12.6 11.5 89 1.0 SSE 6 11 3 6 976.4 - 0.0
04/11:00pm 13.4 12.1 11.4 88 1.1 E 9 13 5 7 977.4 - 0.0
04/10:50pm 13.3 11.7 11.5 89 1.0 E 11 13 6 7 976.8 - 0.0
04/10:40pm 12.8 12.0 11.7 93 0.6 E 7 11 4 6 977.2 - 0.0
04/10:30pm 12.7 12.1 11.7 94 0.5 ESE 6 9 3 5 977.6 - 0.0
04/10:20pm 12.8 12.2 11.7 93 0.6 ESE 6 7 3 4 977.8 - 0.0
04/10:10pm 13.2 13.4 12.0 92 0.7 NNE 2 4 1 2 977.9 - 0.0
04/10:00pm 13.2 13.8 11.9 92 0.7 CALM 0 0 0 0 978.1 - 0.0
04/09:50pm 13.3 13.1 11.8 91 0.8 N 4 7 2 4 978.2 - 0.0
04/09:40pm 13.3 12.2 11.9 91 0.8 NE 9 13 5 7 977.9 - 0.0
04/09:30pm 13.5 12.8 11.9 90 0.9 NE 7 9 4 5 978.1 - 0.0
04/09:20pm 13.7 13.2 12.0 89 0.9 NE 6 7 3 4 978.1 - 0.0
04/09:10pm 13.8 13.1 11.9 88 1.0 NE 7 9 4 5 978.4 - 0.0
04/09:00pm 13.8 12.7 12.1 89 0.9 ENE 9 11 5 6 978.3 - 0.0
04/08:50pm 14.0 13.3 12.1 88 1.0 ENE 7 9 4 5 978.3 - 0.0
04/08:40pm 14.1 13.1 12.2 88 1.0 ENE 9 11 5 6 978.3 - 0.0
04/08:30pm 14.3 13.3 12.3 88 1.1 ENE 9 11 5 6 978.2 - 0.0
04/08:20pm 14.4 13.4 12.2 87 1.2 E 9 11 5 6 978.3 - 0.0
04/08:10pm 14.6 12.8 12.1 85 1.4 E 13 15 7 8 978.4 - 0.0
04/08:00pm 14.7 12.9 12.2 85 1.4 E 13 17 7 9 978.3 - 0.0
04/07:50pm 15.0 13.3 12.3 84 1.5 ENE 13 17 7 9 978.3 - 0.0
04/07:40pm 15.2 13.9 12.6 84 1.4 E 11 15 6 8 978.2 - 0.0
04/07:30pm 15.3 13.2 12.4 83 1.6 E 15 17 8 9 978.3 - 0.0
04/07:20pm 15.5 13.8 12.6 83 1.6 E 13 15 7 8 978.3 - 0.0
04/07:10pm 15.8 13.4 12.8 82 1.7 E 17 24 9 13 978.4 - 0.0
04/07:00pm 16.2 13.3 12.9 81 1.9 E 20 26 11 14 978.1 - 0.0
04/06:50pm 16.7 13.9 13.2 80 2.0 E 20 24 11 13 978.4 - 0.0
04/06:40pm 16.9 14.2 13.4 80 2.0 E 20 24 11 13 978.3 - 0.0
04/06:30pm 17.2 14.5 13.4 78 2.2 E 20 24 11 13 978.2 - 0.0
04/06:20pm 16.7 13.6 13.4 81 1.9 E 22 24 12 13 978.1 - 0.0
04/06:10pm 17.2 13.7 13.5 79 2.1 E 24 28 13 15 978.2 - 0.0
04/06:00pm 17.8 14.4 13.6 76 2.4 E 24 26 13 14 978.2 - 0.0
04/05:50pm 17.7 14.3 13.7 77 2.3 E 24 28 13 15 978.1 - 0.0
04/05:40pm 17.4 13.5 13.3 77 2.3 - 26 32 14 17 978.2 - 0.0
04/05:30pm 17.2 13.8 13.7 80 2.0 E 24 28 13 15 978.2 - 0.0
04/05:20pm 17.9 14.2 14.0 78 2.3 E 26 30 14 16 978.2 - 0.0
04/05:10pm 18.2 14.9 14.1 77 2.4 E 24 28 13 15 978.2 - 0.0
04/05:00pm 17.9 14.2 13.8 77 2.4 E 26 28 14 15 978.4 - 0.0
04/04:50pm 18.1 14.5 14.1 77 2.3 - 26 28 14 15 978.4 - 0.0
04/04:40pm 18.3 14.5 13.7 74 2.6 E 26 28 14 15 978.5 - 0.0
04/04:30pm 18.2 14.2 14.0 76 2.4 E 28 28 15 15 978.5 - 0.0
04/04:20pm 18.5 14.9 14.2 76 2.5 E 26 30 14 16 978.7 - 0.0
04/04:10pm 18.2 14.2 14.0 76 2.4 E 28 35 15 19 978.7 - 0.0
04/04:00pm 18.1 14.0 13.7 75 2.5 E 28 32 15 17 978.8 - 0.0
04/03:50pm 18.4 14.2 13.6 73 2.8 E 28 30 15 16 979.1 - 0.0
04/03:40pm 18.4 14.6 13.5 73 2.8 E 26 30 14 16 979.2 - 0.0
04/03:30pm 18.7 15.5 14.2 75 2.6 E 24 33 13 18 979.4 - 0.0
04/03:20pm 18.9 14.7 13.6 71 3.1 E 28 30 15 16 979.3 - 0.0
04/03:10pm 19.3 15.7 14.2 72 3.0 E 26 32 14 17 979.6 - 0.0
04/03:00pm 18.5 15.3 14.3 76 2.4 E 24 28 13 15 979.8 - 0.0
04/02:50pm 18.6 14.7 13.4 72 3.0 E 26 33 14 18 979.8 - 0.0
04/02:40pm 18.8 15.0 13.7 72 2.9 E 26 30 14 16 980.0 - 0.0
04/02:30pm 18.5 15.9 13.7 73 2.8 E 20 22 11 12 980.0 - 0.0
04/02:20pm 18.7 15.9 14.2 75 2.6 E 22 26 12 14 980.1 - 0.0
04/02:10pm 19.0 15.5 14.5 75 2.6 E 26 32 14 17 980.1 - 0.0
04/02:00pm 19.0 15.6 14.7 76 2.5 E 26 30 14 16 980.2 - 0.0
04/01:50pm 19.2 14.9 14.3 73 2.9 E 30 32 16 17 980.3 - 0.0
04/01:40pm 19.8 16.0 14.8 73 3.0 E 28 32 15 17 980.4 - 0.0
04/01:30pm 19.7 15.8 14.5 72 3.1 E 28 32 15 17 980.5 - 0.0
04/01:20pm 19.3 16.5 14.3 73 2.9 E 22 32 12 17 980.5 - 0.0
04/01:10pm 19.8 16.8 14.8 73 3.0 E 24 30 13 16 980.4 - 0.0
04/01:00pm 20.9 18.7 14.9 68 3.6 E 20 22 11 12 980.5 - 0.0
04/12:50pm 21.0 18.3 15.5 71 3.3 E 24 28 13 15 980.4 - 0.0
04/12:40pm 21.6 19.6 15.4 68 3.7 E 20 26 11 14 980.5 - 0.0
04/12:30pm 22.0 20.0 15.0 64 4.2 E 19 22 10 12 980.6 - 0.0
04/12:20pm 22.5 21.2 14.9 62 4.6 E 15 19 8 10 980.6 - 0.0
04/12:10pm 22.3 21.4 15.9 67 3.9 ENE 15 17 8 9 980.7 - 0.0
04/12:00pm 22.8 22.3 14.8 60 4.8 ENE 11 11 6 6 980.6 - 0.0
04/11:50am 23.9 23.5 12.9 50 6.4 E 7 11 4 6 980.7 - 0.0
04/11:40am 24.2 24.5 13.3 50 6.4 ESE 4 7 2 4 980.7 - 0.0
04/11:30am 23.8 23.9 12.8 50 6.4 SSE 4 6 2 3 980.9 - 0.0
04/11:20am 22.8 23.2 13.7 56 5.4 WSW 4 6 2 3 981.1 - 0.0
04/11:10am 22.2 22.1 13.4 57 5.1 WSW 6 7 3 4 981.3 - 0.0
04/11:00am 21.9 22.5 14.2 61 4.5 WSW 4 6 2 3 981.4 - 0.0
04/10:50am 21.2 21.3 12.7 58 4.9 SSW 4 7 2 4 981.4 - 0.0
04/10:40am 20.4 20.7 13.5 64 4.0 W 4 4 2 2 981.5 - 0.0
04/10:30am 20.2 21.0 13.7 66 3.8 WSW 2 6 1 3 981.7 - 0.0
04/10:20am 19.4 20.2 13.8 70 3.2 N 2 6 1 3 981.7 - 0.0
04/10:10am 18.9 20.0 14.7 76 2.5 NW 2 6 1 3 981.8 - 0.0
04/10:00am 18.3 19.9 15.0 81 1.9 CALM 0 2 0 1 981.9 - 0.0
04/09:50am 17.5 19.0 14.6 83 1.7 CALM 0 2 0 1 982.1 - 0.0
04/09:40am 16.7 18.0 15.1 90 0.9 WNW 2 4 1 2 982.2 - 0.0
04/09:30am 15.8 16.9 14.5 92 0.8 WNW 2 4 1 2 982.4 - 0.0
04/09:20am 14.9 15.7 13.8 93 0.6 NNW 2 4 1 2 982.5 - 0.0
04/09:10am 14.4 14.7 13.5 94 0.5 WNW 4 6 2 3 982.6 - 0.0
04/09:00am 13.9 14.9 13.2 96 0.4 CALM 0 4 0 2 982.6 - 0.0
04/08:50am 13.4 14.3 12.8 96 0.3 CALM 0 2 0 1 982.6 - 0.0
04/08:40am 12.7 13.4 12.1 96 0.3 CALM 0 2 0 1 982.6 - 0.0
04/08:30am 12.1 12.2 11.5 96 0.3 S 2 4 1 2 982.8 - 0.0
04/08:20am 12.1 12.2 11.6 97 0.3 SSW 2 4 1 2 982.9 - 0.0
04/08:10am 11.7 12.1 11.3 97 0.2 CALM 0 0 0 0 982.8 - 0.0
04/08:00am 11.1 11.3 10.7 97 0.2 CALM 0 2 0 1 982.8 - 0.0
04/07:50am 10.9 10.7 10.5 97 0.2 WNW 2 4 1 2 982.7 - 0.0
04/07:40am 10.7 10.5 10.3 97 0.2 NNW 2 4 1 2 982.7 - 0.0
04/07:30am 10.4 10.1 10.0 97 0.2 N 2 4 1 2 982.7 - 0.0
04/07:20am 10.1 9.7 9.7 97 0.2 NNW 2 4 1 2 982.6 - 0.0
04/07:10am 10.0 10.0 9.7 98 0.2 CALM 0 2 0 1 982.4 - 0.0
04/07:00am 9.8 9.7 9.4 97 0.2 CALM 0 2 0 1 982.4 - 0.0
04/06:50am 9.7 9.6 9.4 98 0.2 CALM 0 2 0 1 982.4 - 0.0
04/06:40am 9.5 9.3 9.1 97 0.2 CALM 0 2 0 1 982.4 - 0.0
04/06:30am 9.3 9.1 9.0 98 0.1 CALM 0 2 0 1 982.3 - 0.0
04/06:20am 9.2 8.9 8.8 97 0.2 CALM 0 2 0 1 982.3 - 0.0
04/06:10am 8.9 8.2 8.6 98 0.1 SW 2 4 1 2 982.2 - 0.0
04/06:00am 8.8 8.1 8.5 98 0.1 SW 2 4 1 2 982.2 - 0.0
04/05:50am 8.4 8.0 8.1 98 0.1 CALM 0 4 0 2 982.1 - 0.0
04/05:40am 8.1 7.2 7.8 98 0.1 WNW 2 6 1 3 982.1 - 0.0
04/05:30am 8.0 7.4 7.6 97 0.2 CALM 0 4 0 2 982.0 - 0.0
04/05:20am 7.9 7.0 7.6 98 0.1 ENE 2 4 1 2 981.8 - 0.0
04/05:10am 7.8 6.8 7.5 98 0.1 ENE 2 4 1 2 981.8 - 0.0
04/05:00am 7.7 7.1 7.3 97 0.2 CALM 0 2 0 1 981.8 - 0.0
04/04:50am 7.5 6.4 7.1 97 0.2 N 2 4 1 2 981.9 - 0.0
04/04:40am 8.0 6.7 7.5 97 0.2 ESE 4 6 2 3 981.9 - 0.0
04/04:30am 7.7 6.3 7.3 97 0.2 E 4 4 2 2 982.0 - 0.0
04/04:20am 8.4 7.9 8.0 97 0.2 CALM 0 4 0 2 982.0 - 0.0
04/04:10am 8.2 7.7 7.7 97 0.2 CALM 0 2 0 1 982.1 - 0.0
04/04:00am 8.8 8.4 8.4 97 0.2 CALM 0 2 0 1 982.1 - 0.0
04/03:50am 8.7 7.9 8.3 97 0.2 SE 2 4 1 2 982.1 - 0.0
04/03:40am 9.0 8.7 8.5 97 0.2 CALM 0 0 0 0 982.2 - 0.0
04/03:30am 9.1 8.8 8.6 97 0.2 CALM 0 0 0 0 982.2 - 0.0
04/03:20am 9.6 9.4 9.1 97 0.2 CALM 0 0 0 0 982.2 - 0.0
04/03:10am 9.6 9.4 9.2 97 0.2 CALM 0 0 0 0 982.2 - 0.0
04/03:00am 9.5 9.3 9.0 97 0.2 CALM 0 0 0 0 982.3 - 0.0
04/02:50am 9.5 9.3 9.0 97 0.2 CALM 0 0 0 0 982.3 - 0.0
04/02:40am 9.4 8.8 8.9 97 0.2 SSW 2 4 1 2 982.3 - 0.0
04/02:30am 9.4 8.8 8.9 97 0.2 SSW 2 4 1 2 982.4 - 0.0
04/02:20am 9.5 8.5 8.9 96 0.3 SE 4 7 2 4 982.4 - 0.0
04/02:10am 9.6 8.1 9.0 96 0.3 ESE 7 9 4 5 982.5 - 0.0
04/02:00am 9.5 8.5 8.7 95 0.4 ESE 4 6 2 3 982.5 - 0.0
04/01:50am 9.6 9.0 8.9 95 0.3 ENE 2 4 1 2 982.6 - 0.0
04/01:40am 9.8 8.8 8.9 94 0.4 ENE 4 6 2 3 982.6 - 0.0
04/01:30am 10.5 10.0 9.5 93 0.5 NNE 2 4 1 2 982.6 - 0.0
04/01:20am 11.0 11.1 10.2 95 0.4 CALM 0 0 0 0 982.8 - 0.0
04/01:10am 10.5 10.4 9.6 94 0.5 CALM 0 2 0 1 982.7 - 0.0
04/01:00am 10.6 9.7 9.3 92 0.7 WSW 4 4 2 2 982.8 - 0.0
04/12:50am 11.7 11.1 10.5 92 0.6 W 4 6 2 3 982.8 - 0.0
04/12:40am 11.8 11.3 10.6 92 0.6 W 4 4 2 2 982.8 - 0.0
04/12:30am 12.1 11.6 10.7 91 0.7 NW 4 6 2 3 982.9 - 0.0
04/12:20am 12.2 12.0 10.6 90 0.8 WNW 2 4 1 2 982.9 - 0.0
04/12:10am 12.5 11.4 10.6 88 1.0 W 7 9 4 5 983.0 - 0.0
04/12:00am 12.7 11.6 10.7 88 1.1 W 7 9 4 5 983.1 - 0.0
 
Date/Time
EDT
Temp
°C
App
Temp
°C
Dew
Point
°C
Rel
Hum
%
Delta-T
°C
Wind Press
QNH
hPa
Press
MSL
hPa
Rain since
9am
mm
Dir  Spd
km/h
Gust
km/h
Spd
kts
Gust
kts
03/11:50pm 12.8 11.9 10.8 88 1.1 WSW 6 7 3 4 983.1 - 0.0
03/11:40pm 12.6 11.5 10.7 88 1.0 WSW 7 7 4 4 983.0 - 0.0
03/11:30pm 12.5 11.6 10.8 89 0.9 WSW 6 7 3 4 983.0 - 0.0
03/11:20pm 13.1 12.3 10.9 86 1.2 W 6 9 3 5 983.0 - 0.0
03/11:10pm 13.4 12.6 11.0 85 1.3 W 6 7 3 4 983.0 - 0.0
03/11:00pm 13.4 12.4 11.0 85 1.3 W 7 9 4 5 983.0 - 0.0
03/10:50pm 12.7 11.7 11.0 89 0.9 WSW 7 7 4 4 983.0 - 0.0
03/10:40pm 13.1 12.3 11.1 88 1.1 W 6 7 3 4 982.9 - 0.0
03/10:30pm 13.3 12.5 11.2 87 1.1 WSW 6 7 3 4 983.0 - 0.0
03/10:20pm 14.0 13.5 10.9 81 1.7 W 4 4 2 2 983.1 - 0.0
03/10:10pm 14.5 14.3 11.7 83 1.5 WNW 4 4 2 2 983.1 - 0.0
03/10:00pm 15.1 14.8 11.6 79 1.9 WNW 4 6 2 3 983.0 - 0.0
03/09:50pm 15.8 15.1 11.5 75 2.3 WSW 6 7 3 4 982.9 - 0.0
03/09:40pm 16.0 15.7 11.6 75 2.4 WSW 4 6 2 3 982.8 - 0.0
03/09:30pm 16.7 16.5 11.9 73 2.7 WSW 4 7 2 4 982.7 - 0.0
03/09:20pm 17.8 16.9 11.4 66 3.5 WNW 7 9 4 5 982.6 - 0.0
03/09:10pm 18.1 17.2 11.4 65 3.7 WNW 7 7 4 4 982.5 - 0.0
03/09:00pm 18.3 17.4 11.5 64 3.8 WNW 7 9 4 5 982.4 - 0.0
03/08:50pm 18.4 17.2 11.5 64 3.8 W 9 9 5 5 982.3 - 0.0
03/08:40pm 19.1 18.3 11.6 62 4.2 W 7 9 4 5 982.3 - 0.0
03/08:30pm 19.7 18.5 11.6 59 4.5 W 9 11 5 6 982.2 - 0.0
03/08:20pm 20.3 19.2 11.9 58 4.7 WNW 9 11 5 6 982.2 - 0.0
03/08:10pm 20.9 19.3 11.6 55 5.2 W 11 15 6 8 982.1 - 0.0
03/08:00pm 21.3 21.0 12.6 57 5.0 WNW 6 7 3 4 982.1 - 0.0
03/07:50pm 21.8 21.1 12.1 54 5.5 WNW 7 9 4 5 982.0 - 0.0
03/07:40pm 22.3 22.5 14.1 59 4.8 NW 6 7 3 4 981.9 - 0.0
03/07:30pm 22.5 22.5 13.6 57 5.2 - 6 9 3 5 981.9 - 0.0
03/07:20pm 22.6 22.1 13.8 57 5.2 E 9 11 5 6 981.7 - 0.0
03/07:10pm 22.8 21.9 13.8 57 5.3 E 11 15 6 8 981.7 - 0.0
03/07:00pm 23.1 22.2 13.8 55 5.5 E 11 13 6 7 981.6 - 0.0
03/06:50pm 23.2 21.4 13.3 53 5.8 E 15 17 8 9 981.5 - 0.0
03/06:40pm 23.6 22.4 14.1 55 5.6 E 13 17 7 9 981.5 - 0.0
03/06:30pm 24.0 23.3 13.2 50 6.3 E 9 15 5 8 981.4 - 0.0
03/06:20pm 23.9 21.8 13.6 52 6.1 E 17 20 9 11 981.2 - 0.0
03/06:10pm 24.3 23.0 13.8 52 6.2 E 13 17 7 9 981.2 - 0.0
03/06:00pm 24.0 22.0 14.0 53 5.9 E 17 19 9 10 981.1 - 0.0
03/05:50pm 24.2 21.7 13.5 51 6.3 E 19 20 10 11 981.1 - 0.0
03/05:40pm 24.7 23.0 13.6 50 6.6 E 15 19 8 10 981.0 - 0.0
03/05:30pm 24.9 23.2 13.5 49 6.7 ESE 15 22 8 12 981.1 - 0.0
03/05:20pm 25.1 23.5 13.9 49 6.7 - 15 19 8 10 981.0 - 0.0
03/05:10pm 25.9 25.8 15.0 51 6.6 ENE 9 13 5 7 981.1 - 0.0
03/05:00pm 26.4 25.4 13.3 44 7.8 NNW 11 15 6 8 981.0 - 0.0
03/04:50pm 26.9 26.8 13.8 44 7.8 NW 7 13 4 7 981.0 - 0.0
03/04:40pm 27.2 26.2 11.0 36 9.3 NNW 7 11 4 6 981.1 - 0.0
03/04:30pm 27.4 26.9 10.6 35 9.6 N 4 7 2 4 981.1 - 0.0
03/04:20pm 27.3 26.3 9.0 31 10.2 W 4 9 2 5 981.2 - 0.0
03/04:10pm 27.2 25.9 9.2 32 10.0 SSW 6 7 3 4 981.3 - 0.0
03/04:00pm 27.4 27.0 11.1 36 9.4 SSW 4 6 2 3 981.4 - 0.0
03/03:50pm 27.3 26.8 9.2 32 10.1 WSW 2 6 1 3 981.4 - 0.0
03/03:40pm 26.7 25.2 9.3 33 9.7 NNW 7 9 4 5 981.5 - 0.0
03/03:30pm 27.1 26.6 10.9 36 9.3 WSW 4 7 2 4 981.6 - 0.0
03/03:20pm 27.3 26.6 10.0 33 9.8 SSW 4 7 2 4 981.7 - 0.0
03/03:10pm 27.0 25.9 8.4 31 10.2 W 4 9 2 5 981.8 - 0.0
03/03:00pm 26.3 25.5 11.2 38 8.6 N 6 9 3 5 981.9 - 0.0
03/02:50pm 26.5 25.4 8.4 31 9.9 SW 4 7 2 4 982.1 - 0.0
03/02:40pm 26.1 26.6 14.0 47 7.2 S 4 7 2 4 982.2 - 0.0
03/02:30pm 25.8 24.6 9.7 36 9.0 W 6 7 3 4 982.3 - 0.0
03/02:20pm 25.7 24.1 8.6 33 9.3 WNW 7 13 4 7 982.5 - 0.0
03/02:10pm 25.9 25.3 10.3 37 8.8 NNW 4 9 2 5 982.5 - 0.0
03/02:00pm 25.2 23.8 8.8 35 9.0 NNW 6 9 3 5 982.7 - 0.0
03/01:50pm 24.8 23.7 10.8 41 7.9 WNW 7 11 4 6 982.8 - 0.0
03/01:40pm 25.0 23.7 7.6 33 9.3 N 4 9 2 5 983.0 - 0.0
03/01:30pm 24.3 23.5 11.0 43 7.5 NNW 6 7 3 4 983.1 - 0.0
03/01:20pm 24.1 24.2 12.6 48 6.7 W 4 7 2 4 983.2 - 0.0
03/01:10pm 24.3 23.9 11.0 43 7.5 S 4 9 2 5 983.3 - 0.0
03/01:00pm 24.0 24.0 11.1 44 7.3 W 2 6 1 3 983.4 - 0.0
03/12:50pm 22.8 22.6 11.8 50 6.3 SW 4 9 2 5 983.6 - 0.0
03/12:40pm 22.4 21.6 11.0 48 6.4 WNW 6 7 3 4 983.7 - 0.0
03/12:30pm 22.0 21.6 12.5 54 5.5 SW 6 9 3 5 983.9 - 0.0
03/12:20pm 21.6 20.4 10.2 48 6.3 SW 7 9 4 5 984.0 - 0.0
03/12:10pm 21.2 20.0 11.5 54 5.4 SW 9 13 5 7 984.1 - 0.0
03/12:00pm 20.8 19.5 11.2 54 5.4 WSW 9 13 5 7 984.3 - 0.0
03/11:50am 20.3 19.0 11.1 55 5.1 SW 9 13 5 7 984.4 - 0.0
03/11:40am 20.1 18.6 10.6 54 5.2 SW 9 11 5 6 984.6 - 0.0
03/11:30am 19.9 18.7 10.4 54 5.2 WSW 7 11 4 6 984.8 - 0.0
03/11:20am 19.8 18.0 9.4 51 5.6 W 9 13 5 7 985.0 - 0.0
03/11:10am 19.2 17.8 9.7 54 5.1 W 7 11 4 6 985.0 - 0.0
03/11:00am 18.8 17.2 10.3 57 4.6 W 9 13 5 7 985.2 - 0.0
03/10:50am 18.6 16.9 9.7 56 4.8 W 9 13 5 7 985.3 - 0.0
03/10:40am 18.3 16.5 9.3 55 4.8 W 9 13 5 7 985.4 - 0.0
03/10:30am 17.9 16.0 8.9 55 4.7 W 9 13 5 7 985.4 - 0.0
03/10:20am 17.3 15.9 10.8 65 3.5 W 9 11 5 6 985.5 - 0.0
03/10:10am 16.9 15.0 9.2 60 4.0 W 9 13 5 7 985.6 - 0.0
03/10:00am 16.6 14.7 9.1 61 3.9 W 9 13 5 7 985.6 - 0.0
03/09:50am 16.4 14.7 9.8 65 3.5 W 9 15 5 8 985.8 - 0.0
03/09:40am 15.7 13.7 8.6 62 3.7 WSW 9 15 5 8 985.9 - 0.0
03/09:30am 15.1 12.8 10.4 73 2.5 WNW 13 19 7 10 986.0 - 0.0
03/09:20am 14.1 11.8 8.9 71 2.7 WNW 11 17 6 9 986.1 - 0.0
03/09:10am 13.0 10.4 9.3 78 1.9 W 13 15 7 8 986.1 - 0.0
03/09:00am 12.6 10.3 9.0 79 1.8 W 11 15 6 8 986.1 - 0.0
03/08:50am 12.4 10.2 9.2 81 1.6 W 11 13 6 7 986.1 - 0.0
03/08:40am 12.1 9.8 9.0 81 1.6 W 11 13 6 7 986.1 - 0.0
03/08:30am 12.0 9.9 9.6 85 1.2 W 11 15 6 8 986.2 - 0.0
03/08:20am 12.0 9.8 9.2 83 1.4 W 11 13 6 7 986.2 - 0.0
03/08:10am 12.0 9.8 9.2 83 1.4 W 11 13 6 7 986.1 - 0.0
03/08:00am 11.8 9.1 9.1 83 1.4 W 13 13 7 7 986.1 - 0.0
03/07:50am 10.7 8.4 8.9 89 0.9 W 11 13 6 7 986.0 - 0.0
03/07:40am 10.3 8.3 8.6 89 0.8 WNW 9 9 5 5 986.0 - 0.0
03/07:30am 10.4 8.4 8.7 89 0.8 WNW 9 9 5 5 986.0 - 0.0
03/07:20am 10.0 7.9 8.4 90 0.8 WNW 9 11 5 6 986.0 - 0.0

Other formats

Comma delimited format used in spreadsheet applications
http://www.bom.gov.au/fwo/IDT60801/IDT60801.99954.axf

JavaScript Object Notation format (JSON) in row-major order
http://www.bom.gov.au/fwo/IDT60801/IDT60801.99954.json

Data quality

Most of these data are generated automatically and are frequently updated. Quality checks on data are not normally performed. It is possible for incorrect values to appear. Refer to information at About Latest Weather Observations and please check the disclaimer before using these data.